sensor_id;sensor_type;location;lat;lon;timestamp;pressure;altitude;pressure_sealevel;temperature;humidity
52855;BME280;38719;51.418;7.286;2023-04-24T00:01:59;98322.22;;;12.95;60.87
52855;BME280;38719;51.418;7.286;2023-04-24T00:04:27;98324.53;;;12.77;60.63
52855;BME280;38719;51.418;7.286;2023-04-24T00:06:55;98328.06;;;12.66;61.21
52855;BME280;38719;51.418;7.286;2023-04-24T00:09:24;98310.34;;;12.53;61.66
52855;BME280;38719;51.418;7.286;2023-04-24T00:11:52;98316.19;;;12.58;61.52
52855;BME280;38719;51.418;7.286;2023-04-24T00:14:20;98320.81;;;12.45;61.69
52855;BME280;38719;51.418;7.286;2023-04-24T00:16:47;98319.56;;;12.27;61.17
52855;BME280;38719;51.418;7.286;2023-04-24T00:19:15;98323.56;;;12.21;61.67
52855;BME280;38719;51.418;7.286;2023-04-24T00:21:42;98319.31;;;12.18;61.88
52855;BME280;38719;51.418;7.286;2023-04-24T00:24:10;98321.25;;;12.16;62.21
52855;BME280;38719;51.418;7.286;2023-04-24T00:26:39;98323.91;;;12.16;61.62
52855;BME280;38719;51.418;7.286;2023-04-24T00:29:06;98324.78;;;12.28;62.23
52855;BME280;38719;51.418;7.286;2023-04-24T00:31:34;98319.09;;;12.21;61.72
52855;BME280;38719;51.418;7.286;2023-04-24T00:34:02;98322.09;;;12.17;61.52
52855;BME280;38719;51.418;7.286;2023-04-24T00:36:29;98315.69;;;12.19;61.31
52855;BME280;38719;51.418;7.286;2023-04-24T00:38:57;98317.09;;;12.01;61.65
52855;BME280;38719;51.418;7.286;2023-04-24T00:41:25;98314.78;;;11.96;62.60
52855;BME280;38719;51.418;7.286;2023-04-24T00:43:54;98315.69;;;11.84;62.62
52855;BME280;38719;51.418;7.286;2023-04-24T00:46:22;98311.59;;;11.91;62.45
52855;BME280;38719;51.418;7.286;2023-04-24T00:48:50;98311.03;;;11.99;61.92
52855;BME280;38719;51.418;7.286;2023-04-24T00:51:17;98320.34;;;11.93;62.95
52855;BME280;38719;51.418;7.286;2023-04-24T00:53:45;98308.09;;;11.90;62.71
52855;BME280;38719;51.418;7.286;2023-04-24T00:56:13;98309.63;;;11.82;62.51
52855;BME280;38719;51.418;7.286;2023-04-24T00:58:41;98305.78;;;11.86;62.96
52855;BME280;38719;51.418;7.286;2023-04-24T01:01:10;98309.75;;;11.91;62.15
52855;BME280;38719;51.418;7.286;2023-04-24T01:03:38;98310.22;;;11.74;62.23
52855;BME280;38719;51.418;7.286;2023-04-24T01:06:08;98303.31;;;11.83;61.80
52855;BME280;38719;51.418;7.286;2023-04-24T01:08:36;98297.69;;;11.63;61.29
52855;BME280;38719;51.418;7.286;2023-04-24T01:11:05;98307.34;;;11.53;61.54
52855;BME280;38719;51.418;7.286;2023-04-24T01:13:34;98313.94;;;11.60;60.62
52855;BME280;38719;51.418;7.286;2023-04-24T01:16:01;98316.31;;;11.52;60.33
52855;BME280;38719;51.418;7.286;2023-04-24T01:18:31;98316.91;;;11.44;61.02
52855;BME280;38719;51.418;7.286;2023-04-24T01:21:01;98313.31;;;11.56;60.58
52855;BME280;38719;51.418;7.286;2023-04-24T01:23:32;98311.47;;;11.57;60.21
52855;BME280;38719;51.418;7.286;2023-04-24T01:25:59;98318.09;;;11.75;60.42
52855;BME280;38719;51.418;7.286;2023-04-24T01:28:27;98315.09;;;11.91;60.04
52855;BME280;38719;51.418;7.286;2023-04-24T01:30:55;98315.97;;;11.56;59.58
52855;BME280;38719;51.418;7.286;2023-04-24T01:33:23;98318.63;;;11.56;59.36
52855;BME280;38719;51.418;7.286;2023-04-24T01:35:51;98322.91;;;11.70;59.28
52855;BME280;38719;51.418;7.286;2023-04-24T01:38:19;98317.63;;;11.82;58.57
52855;BME280;38719;51.418;7.286;2023-04-24T01:40:48;98322.78;;;11.72;59.13
52855;BME280;38719;51.418;7.286;2023-04-24T01:43:16;98317.47;;;11.72;59.46
52855;BME280;38719;51.418;7.286;2023-04-24T01:45:44;98321.44;;;11.55;60.40
52855;BME280;38719;51.418;7.286;2023-04-24T01:48:12;98316.72;;;11.58;60.17
52855;BME280;38719;51.418;7.286;2023-04-24T01:50:40;98318.63;;;11.56;60.36
52855;BME280;38719;51.418;7.286;2023-04-24T01:53:08;98323.25;;;11.66;59.71
52855;BME280;38719;51.418;7.286;2023-04-24T01:55:36;98314.09;;;11.70;60.18
52855;BME280;38719;51.418;7.286;2023-04-24T01:58:04;98316.44;;;11.86;59.46
52855;BME280;38719;51.418;7.286;2023-04-24T02:00:32;98317.22;;;11.64;60.19
52855;BME280;38719;51.418;7.286;2023-04-24T02:03:00;98311.75;;;11.65;60.43
52855;BME280;38719;51.418;7.286;2023-04-24T02:05:28;98314.88;;;11.59;61.28
52855;BME280;38719;51.418;7.286;2023-04-24T02:07:56;98316.94;;;11.55;60.64
52855;BME280;38719;51.418;7.286;2023-04-24T02:10:23;98318.19;;;11.63;61.28
52855;BME280;38719;51.418;7.286;2023-04-24T02:12:51;98324.34;;;11.63;60.93
52855;BME280;38719;51.418;7.286;2023-04-24T02:15:20;98330.22;;;11.44;60.89
52855;BME280;38719;51.418;7.286;2023-04-24T02:17:47;98315.03;;;11.33;61.62
52855;BME280;38719;51.418;7.286;2023-04-24T02:20:15;98318.66;;;11.08;62.82
52855;BME280;38719;51.418;7.286;2023-04-24T02:22:43;98319.31;;;10.99;62.92
52855;BME280;38719;51.418;7.286;2023-04-24T02:25:11;98316.19;;;11.05;62.54
52855;BME280;38719;51.418;7.286;2023-04-24T02:27:38;98323.28;;;11.17;62.66
52855;BME280;38719;51.418;7.286;2023-04-24T02:30:07;98319.47;;;11.21;62.40
52855;BME280;38719;51.418;7.286;2023-04-24T02:32:36;98323.41;;;11.16;62.61
52855;BME280;38719;51.418;7.286;2023-04-24T02:35:04;98327.72;;;11.29;62.06
52855;BME280;38719;51.418;7.286;2023-04-24T02:37:32;98339.06;;;11.20;62.48
52855;BME280;38719;51.418;7.286;2023-04-24T02:39:59;98347.03;;;10.96;63.43
52855;BME280;38719;51.418;7.286;2023-04-24T02:42:27;98350.16;;;10.77;63.98
52855;BME280;38719;51.418;7.286;2023-04-24T02:44:54;98337.25;;;10.84;63.82
52855;BME280;38719;51.418;7.286;2023-04-24T02:47:22;98342.66;;;10.95;63.93
52855;BME280;38719;51.418;7.286;2023-04-24T02:49:51;98352.34;;;10.96;63.27
52855;BME280;38719;51.418;7.286;2023-04-24T02:52:18;98359.19;;;10.87;64.29
52855;BME280;38719;51.418;7.286;2023-04-24T02:54:46;98352.41;;;10.83;64.13
52855;BME280;38719;51.418;7.286;2023-04-24T02:57:13;98352.59;;;10.93;64.37
52855;BME280;38719;51.418;7.286;2023-04-24T02:59:41;98354.06;;;10.97;64.04
52855;BME280;38719;51.418;7.286;2023-04-24T03:02:09;98357.13;;;11.04;64.17
52855;BME280;38719;51.418;7.286;2023-04-24T03:04:37;98346.25;;;11.07;63.31
52855;BME280;38719;51.418;7.286;2023-04-24T03:07:07;98355.13;;;10.94;63.69
52855;BME280;38719;51.418;7.286;2023-04-24T03:09:35;98357.31;;;11.13;64.30
52855;BME280;38719;51.418;7.286;2023-04-24T03:12:02;98357.09;;;11.17;64.71
52855;BME280;38719;51.418;7.286;2023-04-24T03:14:30;98356.06;;;11.31;63.45
52855;BME280;38719;51.418;7.286;2023-04-24T03:16:58;98369.91;;;10.99;64.66
52855;BME280;38719;51.418;7.286;2023-04-24T03:19:26;98359.72;;;10.92;64.44
52855;BME280;38719;51.418;7.286;2023-04-24T03:21:53;98362.50;;;10.91;64.67
52855;BME280;38719;51.418;7.286;2023-04-24T03:24:22;98374.72;;;10.93;64.71
52855;BME280;38719;51.418;7.286;2023-04-24T03:26:49;98368.34;;;10.96;64.56
52855;BME280;38719;51.418;7.286;2023-04-24T03:29:17;98360.84;;;11.01;64.84
52855;BME280;38719;51.418;7.286;2023-04-24T03:31:44;98376.44;;;10.94;64.94
52855;BME280;38719;51.418;7.286;2023-04-24T03:34:12;98379.53;;;10.88;64.74
52855;BME280;38719;51.418;7.286;2023-04-24T03:36:39;98368.00;;;11.01;64.90
52855;BME280;38719;51.418;7.286;2023-04-24T03:39:07;98375.41;;;10.84;65.50
52855;BME280;38719;51.418;7.286;2023-04-24T03:41:36;98371.31;;;10.91;64.66
52855;BME280;38719;51.418;7.286;2023-04-24T03:44:03;98365.16;;;10.91;64.63
52855;BME280;38719;51.418;7.286;2023-04-24T03:46:30;98380.19;;;10.79;64.89
52855;BME280;38719;51.418;7.286;2023-04-24T03:48:58;98375.41;;;10.71;65.70
52855;BME280;38719;51.418;7.286;2023-04-24T03:51:25;98378.78;;;10.86;65.25
52855;BME280;38719;51.418;7.286;2023-04-24T03:53:54;98368.53;;;11.06;64.64
52855;BME280;38719;51.418;7.286;2023-04-24T03:56:21;98364.63;;;10.86;64.61
52855;BME280;38719;51.418;7.286;2023-04-24T03:58:50;98375.41;;;10.84;65.04
52855;BME280;38719;51.418;7.286;2023-04-24T04:01:17;98374.84;;;10.79;64.87
52855;BME280;38719;51.418;7.286;2023-04-24T04:03:46;98381.38;;;10.88;65.03
52855;BME280;38719;51.418;7.286;2023-04-24T04:06:14;98370.41;;;10.79;65.48
52855;BME280;38719;51.418;7.286;2023-04-24T04:08:42;98380.63;;;10.73;65.73
52855;BME280;38719;51.418;7.286;2023-04-24T04:11:09;98381.81;;;10.69;65.98
52855;BME280;38719;51.418;7.286;2023-04-24T04:13:37;98384.59;;;10.67;65.32
52855;BME280;38719;51.418;7.286;2023-04-24T04:16:05;98385.41;;;10.80;65.63
52855;BME280;38719;51.418;7.286;2023-04-24T04:18:33;98375.72;;;10.79;65.17
52855;BME280;38719;51.418;7.286;2023-04-24T04:21:01;98374.44;;;10.72;65.61
52855;BME280;38719;51.418;7.286;2023-04-24T04:23:28;98385.50;;;10.79;65.06
52855;BME280;38719;51.418;7.286;2023-04-24T04:25:56;98383.28;;;10.86;65.30
52855;BME280;38719;51.418;7.286;2023-04-24T04:28:23;98391.38;;;10.84;64.89
52855;BME280;38719;51.418;7.286;2023-04-24T04:30:51;98387.34;;;10.78;65.11
52855;BME280;38719;51.418;7.286;2023-04-24T04:33:21;98388.31;;;10.64;65.04
52855;BME280;38719;51.418;7.286;2023-04-24T04:35:49;98386.06;;;10.84;65.16
52855;BME280;38719;51.418;7.286;2023-04-24T04:38:18;98385.94;;;10.86;64.60
52855;BME280;38719;51.418;7.286;2023-04-24T04:40:46;98395.63;;;10.74;64.77
52855;BME280;38719;51.418;7.286;2023-04-24T04:43:14;98396.59;;;10.73;65.53
52855;BME280;38719;51.418;7.286;2023-04-24T04:45:42;98402.91;;;10.72;65.20
52855;BME280;38719;51.418;7.286;2023-04-24T04:48:11;98401.19;;;10.71;65.33
52855;BME280;38719;51.418;7.286;2023-04-24T04:50:41;98403.44;;;10.51;65.49
52855;BME280;38719;51.418;7.286;2023-04-24T04:53:08;98402.91;;;10.46;65.79
52855;BME280;38719;51.418;7.286;2023-04-24T04:55:36;98395.00;;;10.44;66.00
52855;BME280;38719;51.418;7.286;2023-04-24T04:58:04;98398.13;;;10.51;65.66
52855;BME280;38719;51.418;7.286;2023-04-24T05:00:31;98402.47;;;10.39;66.24
52855;BME280;38719;51.418;7.286;2023-04-24T05:03:01;98410.53;;;10.51;65.95
52855;BME280;38719;51.418;7.286;2023-04-24T05:05:47;98401.53;;;10.53;65.65
52855;BME280;38719;51.418;7.286;2023-04-24T05:08:14;98401.63;;;10.64;65.75
52855;BME280;38719;51.418;7.286;2023-04-24T05:10:52;98404.28;;;10.64;65.39
52855;BME280;38719;51.418;7.286;2023-04-24T05:13:20;98395.22;;;10.54;65.17
52855;BME280;38719;51.418;7.286;2023-04-24T05:16:04;98388.00;;;10.69;64.94
52855;BME280;38719;51.418;7.286;2023-04-24T05:18:31;98390.75;;;10.68;64.78
52855;BME280;38719;51.418;7.286;2023-04-24T05:21:00;98393.00;;;10.61;64.56
52855;BME280;38719;51.418;7.286;2023-04-24T05:23:28;98394.78;;;10.60;64.89
52855;BME280;38719;51.418;7.286;2023-04-24T05:25:56;98410.13;;;10.70;64.70
52855;BME280;38719;51.418;7.286;2023-04-24T05:28:23;98400.47;;;10.56;65.13
52855;BME280;38719;51.418;7.286;2023-04-24T05:30:54;98403.00;;;10.57;65.43
52855;BME280;38719;51.418;7.286;2023-04-24T05:33:22;98406.31;;;10.61;65.15
52855;BME280;38719;51.418;7.286;2023-04-24T05:35:50;98410.34;;;10.54;65.47
52855;BME280;38719;51.418;7.286;2023-04-24T05:38:19;98418.03;;;10.58;66.06
52855;BME280;38719;51.418;7.286;2023-04-24T05:40:46;98409.59;;;10.52;67.42
52855;BME280;38719;51.418;7.286;2023-04-24T05:43:14;98425.03;;;10.46;67.95
52855;BME280;38719;51.418;7.286;2023-04-24T05:45:41;98418.41;;;10.26;69.50
52855;BME280;38719;51.418;7.286;2023-04-24T05:48:09;98412.16;;;10.40;69.82
52855;BME280;38719;51.418;7.286;2023-04-24T05:50:36;98422.91;;;10.64;69.42
52855;BME280;38719;51.418;7.286;2023-04-24T05:53:04;98414.81;;;10.66;69.62
52855;BME280;38719;51.418;7.286;2023-04-24T05:55:34;98413.44;;;10.73;69.46
52855;BME280;38719;51.418;7.286;2023-04-24T05:58:02;98412.28;;;10.64;69.90
52855;BME280;38719;51.418;7.286;2023-04-24T06:00:30;98412.91;;;10.68;70.25
52855;BME280;38719;51.418;7.286;2023-04-24T06:02:57;98402.78;;;10.60;70.18
52855;BME280;38719;51.418;7.286;2023-04-24T06:05:25;98410.56;;;10.38;70.40
52855;BME280;38719;51.418;7.286;2023-04-24T06:07:53;98410.41;;;10.26;70.62
52855;BME280;38719;51.418;7.286;2023-04-24T06:10:21;98408.00;;;10.36;71.06
52855;BME280;38719;51.418;7.286;2023-04-24T06:12:49;98410.13;;;10.44;70.08
52855;BME280;38719;51.418;7.286;2023-04-24T06:15:17;98405.63;;;10.31;70.53
52855;BME280;38719;51.418;7.286;2023-04-24T06:17:47;98402.31;;;10.28;70.35
52855;BME280;38719;51.418;7.286;2023-04-24T06:20:15;98406.16;;;10.24;69.90
52855;BME280;38719;51.418;7.286;2023-04-24T06:22:42;98406.88;;;10.26;70.64
52855;BME280;38719;51.418;7.286;2023-04-24T06:25:10;98415.19;;;10.34;69.64
52855;BME280;38719;51.418;7.286;2023-04-24T06:27:37;98411.09;;;10.43;70.13
52855;BME280;38719;51.418;7.286;2023-04-24T06:30:08;98413.75;;;10.43;69.58
52855;BME280;38719;51.418;7.286;2023-04-24T06:32:35;98423.31;;;10.45;69.48
52855;BME280;38719;51.418;7.286;2023-04-24T06:35:04;98415.47;;;10.44;69.47
52855;BME280;38719;51.418;7.286;2023-04-24T06:37:33;98412.53;;;10.34;69.33
52855;BME280;38719;51.418;7.286;2023-04-24T06:40:01;98415.69;;;10.41;69.72
52855;BME280;38719;51.418;7.286;2023-04-24T06:42:28;98424.41;;;10.69;69.04
52855;BME280;38719;51.418;7.286;2023-04-24T06:44:56;98426.22;;;10.55;69.61
52855;BME280;38719;51.418;7.286;2023-04-24T06:47:26;98417.59;;;10.64;69.20
52855;BME280;38719;51.418;7.286;2023-04-24T06:49:53;98424.41;;;10.69;70.29
52855;BME280;38719;51.418;7.286;2023-04-24T06:52:21;98426.97;;;10.57;69.92
52855;BME280;38719;51.418;7.286;2023-04-24T06:54:48;98423.31;;;10.71;69.52
52855;BME280;38719;51.418;7.286;2023-04-24T06:57:17;98422.69;;;10.68;70.52
52855;BME280;38719;51.418;7.286;2023-04-24T06:59:44;98416.50;;;10.54;69.96
52855;BME280;38719;51.418;7.286;2023-04-24T07:02:12;98409.28;;;10.43;70.97
52855;BME280;38719;51.418;7.286;2023-04-24T07:04:41;98417.78;;;10.61;70.83
52855;BME280;38719;51.418;7.286;2023-04-24T07:07:09;98403.97;;;10.56;70.58
52855;BME280;38719;51.418;7.286;2023-04-24T07:09:39;98406.72;;;10.80;70.34
52855;BME280;38719;51.418;7.286;2023-04-24T07:12:09;98408.44;;;10.69;70.36
52855;BME280;38719;51.418;7.286;2023-04-24T07:14:37;98419.41;;;10.77;70.46
52855;BME280;38719;51.418;7.286;2023-04-24T07:17:04;98412.56;;;10.73;69.96
52855;BME280;38719;51.418;7.286;2023-04-24T07:19:33;98410.66;;;10.75;70.98
52855;BME280;38719;51.418;7.286;2023-04-24T07:22:02;98426.09;;;10.95;70.56
52855;BME280;38719;51.418;7.286;2023-04-24T07:24:29;98425.44;;;10.79;70.28
52855;BME280;38719;51.418;7.286;2023-04-24T07:26:58;98419.91;;;10.82;70.39
52855;BME280;38719;51.418;7.286;2023-04-24T07:29:27;98416.31;;;10.83;70.34
52855;BME280;38719;51.418;7.286;2023-04-24T07:31:54;98412.78;;;10.83;69.80
52855;BME280;38719;51.418;7.286;2023-04-24T07:34:22;98406.38;;;10.85;69.28
52855;BME280;38719;51.418;7.286;2023-04-24T07:36:50;98409.09;;;10.59;70.40
52855;BME280;38719;51.418;7.286;2023-04-24T07:39:19;98415.66;;;10.67;70.23
52855;BME280;38719;51.418;7.286;2023-04-24T07:41:47;98418.25;;;10.68;70.10
52855;BME280;38719;51.418;7.286;2023-04-24T07:48:30;98422.00;;;10.25;70.39
52855;BME280;38719;51.418;7.286;2023-04-24T07:50:58;98428.09;;;10.27;71.10
52855;BME280;38719;51.418;7.286;2023-04-24T07:53:26;98433.72;;;10.36;70.25
52855;BME280;38719;51.418;7.286;2023-04-24T08:10:46;98438.09;;;10.24;70.61
52855;BME280;38719;51.418;7.286;2023-04-24T08:13:13;98443.03;;;10.03;71.39
52855;BME280;38719;51.418;7.286;2023-04-24T08:15:41;98451.34;;;10.11;70.29
52855;BME280;38719;51.418;7.286;2023-04-24T08:18:08;98457.88;;;10.32;70.06
52855;BME280;38719;51.418;7.286;2023-04-24T08:20:38;98449.78;;;10.34;68.98
52855;BME280;38719;51.418;7.286;2023-04-24T08:23:05;98452.53;;;10.47;69.41
52855;BME280;38719;51.418;7.286;2023-04-24T08:25:33;98453.78;;;10.67;69.88
52855;BME280;38719;51.418;7.286;2023-04-24T08:28:04;98465.41;;;10.92;69.27
52855;BME280;38719;51.418;7.286;2023-04-24T08:30:32;98458.38;;;10.65;67.70
52855;BME280;38719;51.418;7.286;2023-04-24T08:33:00;98473.16;;;10.43;68.09
52855;BME280;38719;51.418;7.286;2023-04-24T08:35:28;98465.22;;;10.29;69.07
52855;BME280;38719;51.418;7.286;2023-04-24T08:37:55;98468.91;;;10.13;69.52
52855;BME280;38719;51.418;7.286;2023-04-24T08:40:28;98475.69;;;10.05;69.69
52855;BME280;38719;51.418;7.286;2023-04-24T08:42:57;98477.06;;;9.97;70.27
52855;BME280;38719;51.418;7.286;2023-04-24T08:45:27;98480.53;;;10.12;70.68
52855;BME280;38719;51.418;7.286;2023-04-24T08:47:55;98476.03;;;10.13;70.52
52855;BME280;38719;51.418;7.286;2023-04-24T08:50:22;98471.25;;;10.18;70.13
52855;BME280;38719;51.418;7.286;2023-04-24T08:52:51;98479.22;;;10.05;71.39
52855;BME280;38719;51.418;7.286;2023-04-24T08:55:20;98488.81;;;10.08;70.34
52855;BME280;38719;51.418;7.286;2023-04-24T08:57:51;98488.25;;;10.03;71.00
52855;BME280;38719;51.418;7.286;2023-04-24T09:00:21;98486.72;;;9.71;71.42
52855;BME280;38719;51.418;7.286;2023-04-24T09:02:50;98490.66;;;9.65;72.30
52855;BME280;38719;51.418;7.286;2023-04-24T09:05:18;98497.06;;;9.76;72.34
52855;BME280;38719;51.418;7.286;2023-04-24T09:07:53;98499.78;;;9.89;72.28
52855;BME280;38719;51.418;7.286;2023-04-24T09:10:21;98503.59;;;9.84;72.00
52855;BME280;38719;51.418;7.286;2023-04-24T09:12:50;98518.22;;;9.92;72.92
52855;BME280;38719;51.418;7.286;2023-04-24T09:15:18;98520.06;;;9.77;72.93
52855;BME280;38719;51.418;7.286;2023-04-24T09:17:47;98530.69;;;9.77;73.05
52855;BME280;38719;51.418;7.286;2023-04-24T09:20:16;98530.25;;;9.97;73.58
52855;BME280;38719;51.418;7.286;2023-04-24T09:22:45;98551.13;;;10.04;73.05
52855;BME280;38719;51.418;7.286;2023-04-24T09:25:12;98550.53;;;10.13;73.73
52855;BME280;38719;51.418;7.286;2023-04-24T09:27:44;98552.47;;;10.24;72.95
52855;BME280;38719;51.418;7.286;2023-04-24T09:30:13;98557.94;;;10.08;74.32
52855;BME280;38719;51.418;7.286;2023-04-24T09:32:40;98556.53;;;10.29;73.33
52855;BME280;38719;51.418;7.286;2023-04-24T09:35:10;98565.25;;;10.19;73.54
52855;BME280;38719;51.418;7.286;2023-04-24T09:37:41;98578.88;;;9.99;74.36
52855;BME280;38719;51.418;7.286;2023-04-24T09:40:13;98574.84;;;10.07;74.83
52855;BME280;38719;51.418;7.286;2023-04-24T09:42:43;98585.13;;;10.26;74.71
52855;BME280;38719;51.418;7.286;2023-04-24T09:45:12;98582.34;;;10.42;73.67
52855;BME280;38719;51.418;7.286;2023-04-24T09:47:41;98590.50;;;10.53;72.99
52855;BME280;38719;51.418;7.286;2023-04-24T09:50:13;98594.69;;;10.15;73.67
52855;BME280;38719;51.418;7.286;2023-04-24T09:52:45;98599.88;;;9.90;75.43
52855;BME280;38719;51.418;7.286;2023-04-24T09:55:20;98599.25;;;9.72;75.50
52855;BME280;38719;51.418;7.286;2023-04-24T09:57:49;98620.53;;;9.72;75.64
52855;BME280;38719;51.418;7.286;2023-04-24T10:00:24;98654.41;;;9.68;75.08
52855;BME280;38719;51.418;7.286;2023-04-24T10:02:56;98650.13;;;9.80;75.71
52855;BME280;38719;51.418;7.286;2023-04-24T10:05:27;98663.63;;;9.77;76.28
52855;BME280;38719;51.418;7.286;2023-04-24T10:08:02;98673.88;;;9.97;75.09
52855;BME280;38719;51.418;7.286;2023-04-24T10:10:31;98682.22;;;9.77;74.26
52855;BME280;38719;51.418;7.286;2023-04-24T10:12:59;98697.97;;;9.80;74.62
52855;BME280;38719;51.418;7.286;2023-04-24T10:15:27;98713.53;;;9.86;73.60
52855;BME280;38719;51.418;7.286;2023-04-24T10:17:55;98696.00;;;9.69;74.00
52855;BME280;38719;51.418;7.286;2023-04-24T10:20:27;98711.56;;;9.75;74.05
52855;BME280;38719;51.418;7.286;2023-04-24T10:22:56;98719.44;;;9.77;74.67
52855;BME280;38719;51.418;7.286;2023-04-24T10:25:26;98736.16;;;9.93;73.83
52855;BME280;38719;51.418;7.286;2023-04-24T10:27:55;98750.03;;;9.84;73.14
52855;BME280;38719;51.418;7.286;2023-04-24T10:30:27;98746.19;;;9.74;73.32
52855;BME280;38719;51.418;7.286;2023-04-24T10:32:55;98742.22;;;9.81;73.36
52855;BME280;38719;51.418;7.286;2023-04-24T10:35:23;98754.41;;;9.99;73.78
52855;BME280;38719;51.418;7.286;2023-04-24T10:37:57;98750.78;;;10.15;72.74
52855;BME280;38719;51.418;7.286;2023-04-24T10:40:29;98760.28;;;10.05;73.03
52855;BME280;38719;51.418;7.286;2023-04-24T10:42:57;98766.19;;;10.10;73.23
52855;BME280;38719;51.418;7.286;2023-04-24T10:45:25;98774.63;;;10.16;73.49
52855;BME280;38719;51.418;7.286;2023-04-24T10:47:56;98776.53;;;10.29;72.87
52855;BME280;38719;51.418;7.286;2023-04-24T10:50:26;98779.59;;;10.37;73.42
52855;BME280;38719;51.418;7.286;2023-04-24T10:53:05;98771.41;;;10.40;71.96
52855;BME280;38719;51.418;7.286;2023-04-24T10:55:41;98794.41;;;10.41;72.13
52855;BME280;38719;51.418;7.286;2023-04-24T10:58:09;98792.78;;;10.24;72.27
52855;BME280;38719;51.418;7.286;2023-04-24T11:00:38;98795.25;;;10.42;72.30
52855;BME280;38719;51.418;7.286;2023-04-24T11:03:06;98807.22;;;10.20;73.04
52855;BME280;38719;51.418;7.286;2023-04-24T11:05:52;98795.63;;;10.36;72.87
52855;BME280;38719;51.418;7.286;2023-04-24T11:08:23;98808.47;;;10.29;72.79
52855;BME280;38719;51.418;7.286;2023-04-24T11:10:58;98808.09;;;10.50;73.46
52855;BME280;38719;51.418;7.286;2023-04-24T11:13:31;98816.56;;;10.56;72.63
52855;BME280;38719;51.418;7.286;2023-04-24T11:16:20;98822.75;;;10.42;73.79
52855;BME280;38719;51.418;7.286;2023-04-24T11:18:51;98823.97;;;10.37;73.37
52855;BME280;38719;51.418;7.286;2023-04-24T11:21:22;98827.75;;;10.32;73.44
52855;BME280;38719;51.418;7.286;2023-04-24T11:23:49;98816.91;;;10.36;73.09
52855;BME280;38719;51.418;7.286;2023-04-24T11:26:21;98832.88;;;10.36;74.06
52855;BME280;38719;51.418;7.286;2023-04-24T11:28:50;98842.44;;;10.40;73.23
52855;BME280;38719;51.418;7.286;2023-04-24T11:31:45;98828.34;;;10.52;73.52
52855;BME280;38719;51.418;7.286;2023-04-24T11:34:17;98832.91;;;10.64;72.87
52855;BME280;38719;51.418;7.286;2023-04-24T11:36:45;98844.00;;;10.86;72.38
52855;BME280;38719;51.418;7.286;2023-04-24T11:39:13;98844.66;;;10.75;71.95
52855;BME280;38719;51.418;7.286;2023-04-24T11:41:43;98852.09;;;10.84;71.68
52855;BME280;38719;51.418;7.286;2023-04-24T11:44:11;98845.91;;;11.11;72.81
52855;BME280;38719;51.418;7.286;2023-04-24T11:46:38;98855.19;;;11.33;71.98
52855;BME280;38719;51.418;7.286;2023-04-24T11:49:06;98855.94;;;11.35;71.56
52855;BME280;38719;51.418;7.286;2023-04-24T11:51:34;98860.44;;;11.47;71.57
52855;BME280;38719;51.418;7.286;2023-04-24T11:54:18;98852.16;;;11.24;70.38
52855;BME280;38719;51.418;7.286;2023-04-24T11:56:47;98860.66;;;10.75;71.73
52855;BME280;38719;51.418;7.286;2023-04-24T11:59:15;98874.25;;;10.70;72.65
52855;BME280;38719;51.418;7.286;2023-04-24T12:01:43;98877.59;;;10.59;72.07
52855;BME280;38719;51.418;7.286;2023-04-24T12:04:11;98869.69;;;10.58;72.24
52855;BME280;38719;51.418;7.286;2023-04-24T12:06:39;98885.75;;;10.42;71.32
52855;BME280;38719;51.418;7.286;2023-04-24T12:09:08;98889.28;;;10.42;71.82
52855;BME280;38719;51.418;7.286;2023-04-24T12:11:53;98890.56;;;10.35;72.20
52855;BME280;38719;51.418;7.286;2023-04-24T12:14:21;98905.19;;;10.28;71.17
52855;BME280;38719;51.418;7.286;2023-04-24T12:16:50;98894.16;;;10.20;69.32
52855;BME280;38719;51.418;7.286;2023-04-24T12:19:20;98899.25;;;10.08;69.33
52855;BME280;38719;51.418;7.286;2023-04-24T12:21:59;98911.44;;;10.57;67.43
52855;BME280;38719;51.418;7.286;2023-04-24T12:24:26;98901.31;;;10.91;69.03
52855;BME280;38719;51.418;7.286;2023-04-24T12:26:55;98900.91;;;11.26;66.79
52855;BME280;38719;51.418;7.286;2023-04-24T12:29:24;98899.31;;;11.51;67.71
52855;BME280;38719;51.418;7.286;2023-04-24T12:31:52;98910.78;;;11.79;66.34
52855;BME280;38719;51.418;7.286;2023-04-24T12:34:20;98908.03;;;11.53;65.98
52855;BME280;38719;51.418;7.286;2023-04-24T12:36:48;98919.28;;;11.58;65.90
52855;BME280;38719;51.418;7.286;2023-04-24T12:39:15;98917.97;;;11.51;66.37
52855;BME280;38719;51.418;7.286;2023-04-24T12:41:57;98919.56;;;11.54;66.45
52855;BME280;38719;51.418;7.286;2023-04-24T12:44:29;98917.19;;;11.76;66.56
52855;BME280;38719;51.418;7.286;2023-04-24T12:46:57;98917.84;;;11.25;65.08
52855;BME280;38719;51.418;7.286;2023-04-24T12:49:25;98932.38;;;11.34;66.30
52855;BME280;38719;51.418;7.286;2023-04-24T12:51:53;98925.28;;;11.20;66.21
52855;BME280;38719;51.418;7.286;2023-04-24T12:54:20;98940.72;;;11.01;66.40
52855;BME280;38719;51.418;7.286;2023-04-24T12:56:48;98941.88;;;10.96;65.77
52855;BME280;38719;51.418;7.286;2023-04-24T12:59:17;98948.72;;;10.86;66.43
52855;BME280;38719;51.418;7.286;2023-04-24T13:01:44;98953.75;;;10.76;65.74
52855;BME280;38719;51.418;7.286;2023-04-24T13:04:12;98948.31;;;10.92;65.84
52855;BME280;38719;51.418;7.286;2023-04-24T13:06:40;98953.97;;;10.88;65.30
52855;BME280;38719;51.418;7.286;2023-04-24T13:09:07;98953.19;;;11.00;64.27
52855;BME280;38719;51.418;7.286;2023-04-24T13:11:35;98956.81;;;10.99;64.03
52855;BME280;38719;51.418;7.286;2023-04-24T13:14:03;98956.09;;;11.10;64.20
52855;BME280;38719;51.418;7.286;2023-04-24T13:16:32;98952.97;;;11.18;64.07
52855;BME280;38719;51.418;7.286;2023-04-24T13:19:00;98950.75;;;11.24;64.38
52855;BME280;38719;51.418;7.286;2023-04-24T13:21:29;98953.94;;;11.58;63.80
52855;BME280;38719;51.418;7.286;2023-04-24T13:23:56;98958.00;;;11.91;62.78
52855;BME280;38719;51.418;7.286;2023-04-24T13:26:24;98953.50;;;12.19;61.67
52855;BME280;38719;51.418;7.286;2023-04-24T13:28:51;98959.81;;;12.18;61.86